createdAt,value
2022-08-27T00:00:48.859Z,15.10
2022-08-27T00:03:15.784Z,16.73
2022-08-27T00:05:43.273Z,16.90
2022-08-27T00:08:12.626Z,14.05
2022-08-27T00:10:41.008Z,14.43
2022-08-27T00:13:08.065Z,13.98
2022-08-27T00:15:35.364Z,14.02
2022-08-27T00:18:02.207Z,14.50
2022-08-27T00:20:29.200Z,13.95
2022-08-27T00:22:56.135Z,15.00
2022-08-27T00:25:23.363Z,17.08
2022-08-27T00:27:50.349Z,15.15
2022-08-27T00:30:20.321Z,12.50
2022-08-27T00:32:48.280Z,15.68
2022-08-27T00:35:16.140Z,15.70
2022-08-27T00:37:44.401Z,16.52
2022-08-27T00:40:18.581Z,16.55
2022-08-27T00:42:46.043Z,46.25
2022-08-27T00:45:15.399Z,28.35
2022-08-27T00:47:48.203Z,15.50
2022-08-27T00:50:20.781Z,13.95
2022-08-27T00:52:54.449Z,13.10
2022-08-27T00:55:49.104Z,11.45
2022-08-27T00:58:25.574Z,12.82
2022-08-27T01:00:55.090Z,10.93
2022-08-27T01:03:22.136Z,12.65
2022-08-27T01:05:50.022Z,12.38
2022-08-27T01:08:23.870Z,20.15
2022-08-27T01:10:52.042Z,15.38
2022-08-27T01:13:21.826Z,12.13
2022-08-27T01:16:11.257Z,21.75
2022-08-27T01:18:39.281Z,16.67
2022-08-27T01:21:40.594Z,13.45
2022-08-27T01:24:28.598Z,17.17
2022-08-27T01:26:56.105Z,16.95
2022-08-27T01:29:22.890Z,17.52
2022-08-27T01:31:49.742Z,15.60
2022-08-27T01:34:16.531Z,19.20
2022-08-27T01:36:43.356Z,26.77
2022-08-27T01:39:10.122Z,19.13
2022-08-27T01:41:39.828Z,9.95
2022-08-27T01:44:06.978Z,39.35
2022-08-27T01:46:33.788Z,19.85
2022-08-27T01:49:00.649Z,13.98
2022-08-27T01:51:27.395Z,12.30
2022-08-27T01:53:54.337Z,14.25
2022-08-27T01:56:21.156Z,18.85
2022-08-27T01:58:47.926Z,14.77
2022-08-27T02:01:16.854Z,20.63
2022-08-27T02:03:44.573Z,31.65
2022-08-27T02:06:12.232Z,17.67
2022-08-27T02:08:39.416Z,21.45
2022-08-27T02:11:08.313Z,25.10
2022-08-27T02:13:35.458Z,25.30
2022-08-27T02:16:02.646Z,33.95
2022-08-27T02:18:29.514Z,23.65
2022-08-27T02:20:56.260Z,28.80
2022-08-27T02:23:23.012Z,19.98
2022-08-27T02:25:50.973Z,23.77
2022-08-27T02:28:17.698Z,16.70
2022-08-27T02:30:44.628Z,21.27
2022-08-27T02:33:12.267Z,22.05
2022-08-27T02:35:40.513Z,24.65
2022-08-27T02:38:08.073Z,21.20
2022-08-27T02:40:36.098Z,29.73
2022-08-27T02:43:03.136Z,16.13
2022-08-27T02:45:30.290Z,18.05
2022-08-27T02:47:57.079Z,32.28
2022-08-27T02:50:26.921Z,16.55
2022-08-27T02:52:55.062Z,19.17
2022-08-27T02:55:22.683Z,23.92
2022-08-27T02:57:49.518Z,34.60
2022-08-27T03:00:19.382Z,19.15
2022-08-27T03:02:46.248Z,15.05
2022-08-27T03:05:13.977Z,13.52
2022-08-27T03:07:41.572Z,19.00
2022-08-27T03:10:10.914Z,17.48
2022-08-27T03:12:38.036Z,15.60
2022-08-27T03:15:09.432Z,14.05
2022-08-27T03:17:55.226Z,17.65
2022-08-27T03:20:22.739Z,18.15
2022-08-27T03:22:49.618Z,14.00
2022-08-27T03:25:17.041Z,15.55
2022-08-27T03:27:43.980Z,12.63
2022-08-27T03:30:15.919Z,15.68
2022-08-27T03:32:43.205Z,15.57
2022-08-27T03:35:11.657Z,16.23
2022-08-27T03:37:38.675Z,15.05
2022-08-27T03:40:07.249Z,15.95
2022-08-27T03:42:35.135Z,15.60
2022-08-27T03:45:01.975Z,20.05
2022-08-27T03:47:29.021Z,18.02
2022-08-27T03:49:56.070Z,17.00
2022-08-27T03:52:22.931Z,16.23
2022-08-27T03:54:49.944Z,19.30
2022-08-27T03:57:16.762Z,19.27
2022-08-27T03:59:43.628Z,18.55
2022-08-27T04:02:10.726Z,18.05
2022-08-27T04:04:37.612Z,15.88
2022-08-27T04:07:04.723Z,17.52
2022-08-27T04:09:31.687Z,15.52
2022-08-27T04:11:58.500Z,13.93
2022-08-27T04:14:26.937Z,13.63
2022-08-27T04:16:56.241Z,17.42
2022-08-27T04:19:27.750Z,15.43
2022-08-27T04:22:02.394Z,15.75
2022-08-27T04:24:30.899Z,15.10
2022-08-27T04:26:58.570Z,13.98
2022-08-27T04:29:25.426Z,12.90
2022-08-27T04:31:52.482Z,17.50
2022-08-27T04:34:19.827Z,16.63
2022-08-27T04:36:47.802Z,18.73
2022-08-27T04:39:15.090Z,17.13
2022-08-27T04:41:42.224Z,14.98
2022-08-27T04:44:10.810Z,30.80
2022-08-27T04:46:40.564Z,18.67
2022-08-27T04:49:11.483Z,39.95
2022-08-27T04:51:40.187Z,33.55
2022-08-27T04:54:07.941Z,30.60
2022-08-27T04:56:36.075Z,25.40
2022-08-27T04:59:05.036Z,23.77
2022-08-27T05:01:32.320Z,49.60
2022-08-27T05:03:59.307Z,26.23
2022-08-27T05:06:26.613Z,47.00
2022-08-27T05:08:54.356Z,14.65
2022-08-27T05:11:22.811Z,17.63
2022-08-27T05:13:50.594Z,13.85
2022-08-27T05:16:21.449Z,15.48
2022-08-27T05:18:50.381Z,17.13
2022-08-27T05:21:26.228Z,13.95
2022-08-27T05:23:54.944Z,10.32
2022-08-27T05:26:22.356Z,9.98
2022-08-27T05:28:49.128Z,10.30
2022-08-27T05:31:17.322Z,10.90
2022-08-27T05:33:44.257Z,12.95
2022-08-27T05:36:22.958Z,15.25
2022-08-27T05:38:50.350Z,18.13
2022-08-27T05:41:33.823Z,16.10
2022-08-27T05:44:18.465Z,14.52
2022-08-27T05:46:51.313Z,18.25
2022-08-27T05:49:18.427Z,16.40
2022-08-27T05:51:45.232Z,17.77
2022-08-27T05:54:16.723Z,14.90
2022-08-27T05:56:43.462Z,14.18
2022-08-27T05:59:28.963Z,14.02
2022-08-27T06:01:56.771Z,15.07
2022-08-27T06:04:24.894Z,15.30
2022-08-27T06:06:52.539Z,13.05
2022-08-27T06:09:22.166Z,16.85
2022-08-27T06:11:49.464Z,16.00
2022-08-27T06:14:16.487Z,15.13
2022-08-27T06:16:43.269Z,15.82
2022-08-27T06:19:14.167Z,14.65
2022-08-27T06:21:42.277Z,17.27
2022-08-27T06:24:12.162Z,13.32
2022-08-27T06:26:40.821Z,14.32
2022-08-27T06:29:10.210Z,12.70
2022-08-27T06:31:40.387Z,14.05
2022-08-27T06:34:09.125Z,12.50
2022-08-27T06:36:38.550Z,18.45
2022-08-27T06:39:06.393Z,14.25
2022-08-27T06:41:34.452Z,16.25
2022-08-27T06:44:01.294Z,19.50
2022-08-27T06:46:29.441Z,15.38
2022-08-27T06:48:59.383Z,14.93
2022-08-27T06:51:38.044Z,17.80
2022-08-27T06:54:08.876Z,15.20
2022-08-27T06:56:36.200Z,15.40
2022-08-27T06:59:06.648Z,16.02
2022-08-27T07:01:41.800Z,14.70
2022-08-27T07:04:11.952Z,15.20
2022-08-27T07:06:40.467Z,13.98
2022-08-27T07:09:09.036Z,14.07
2022-08-27T07:11:38.402Z,13.02
2022-08-27T07:14:06.448Z,14.18
2022-08-27T07:16:33.957Z,14.82
2022-08-27T07:19:04.002Z,15.95
2022-08-27T07:21:32.873Z,16.27
2022-08-27T07:24:04.898Z,13.70
2022-08-27T07:26:34.686Z,17.17
2022-08-27T07:29:01.916Z,16.00
2022-08-27T07:31:29.075Z,14.73
2022-08-27T07:33:55.873Z,14.85
2022-08-27T07:36:23.694Z,16.10
2022-08-27T07:38:56.745Z,14.43
2022-08-27T07:41:31.274Z,14.02
2022-08-27T07:44:18.975Z,14.90
2022-08-27T07:46:48.464Z,15.00
2022-08-27T07:49:19.446Z,15.90
2022-08-27T07:51:46.463Z,13.60
2022-08-27T07:54:13.451Z,13.05
2022-08-27T07:56:40.339Z,14.65
2022-08-27T07:59:07.844Z,14.00
2022-08-27T08:01:35.301Z,13.68
2022-08-27T08:04:02.792Z,18.55
2022-08-27T08:06:29.757Z,14.73
2022-08-27T08:08:56.700Z,13.90
2022-08-27T08:11:23.562Z,13.90
2022-08-27T08:13:50.450Z,12.23
2022-08-27T08:16:17.232Z,13.82
2022-08-27T08:18:44.123Z,12.90
2022-08-27T08:21:13.699Z,11.60
2022-08-27T08:23:42.399Z,13.63
2022-08-27T08:26:11.059Z,14.85
2022-08-27T08:28:39.254Z,15.52
2022-08-27T08:31:07.726Z,12.63
2022-08-27T08:33:35.645Z,14.25
2022-08-27T08:36:20.662Z,12.98
2022-08-27T08:38:47.793Z,13.10
2022-08-27T08:41:40.560Z,13.52
2022-08-27T08:44:22.350Z,14.52
2022-08-27T08:46:56.734Z,15.95
2022-08-27T08:49:38.480Z,14.70
2022-08-27T08:52:30.995Z,18.13
2022-08-27T08:55:03.439Z,13.63
2022-08-27T08:57:38.902Z,12.93
2022-08-27T09:00:12.501Z,13.98
2022-08-27T09:02:42.108Z,12.38
2022-08-27T09:05:09.801Z,12.88
2022-08-27T09:07:58.243Z,13.52
2022-08-27T09:10:50.734Z,11.25
2022-08-27T09:13:24.994Z,13.00
2022-08-27T09:15:56.939Z,14.10
2022-08-27T09:18:24.166Z,11.80
2022-08-27T09:21:27.821Z,12.63
2022-08-27T09:23:54.891Z,14.88
2022-08-27T09:26:28.069Z,15.32
2022-08-27T09:29:18.594Z,12.35
2022-08-27T09:31:55.578Z,15.52
2022-08-27T09:34:23.409Z,14.50
2022-08-27T09:36:59.972Z,17.52
2022-08-27T09:39:33.737Z,15.18
2022-08-27T09:42:03.084Z,12.60
2022-08-27T09:44:32.502Z,16.95
2022-08-27T09:47:02.707Z,15.38
2022-08-27T09:49:31.126Z,16.17
2022-08-27T09:51:58.994Z,14.27
2022-08-27T09:54:56.538Z,15.15
2022-08-27T09:57:40.535Z,11.70
2022-08-27T10:00:13.473Z,14.00
2022-08-27T10:02:51.281Z,13.35
2022-08-27T10:05:33.797Z,14.70
2022-08-27T10:08:04.958Z,15.80
2022-08-27T10:10:43.489Z,12.55
2022-08-27T10:13:19.610Z,16.77
2022-08-27T10:15:56.998Z,15.93
2022-08-27T10:18:32.911Z,15.85
2022-08-27T10:21:04.859Z,13.55
2022-08-27T10:23:51.023Z,11.32
2022-08-27T10:26:43.926Z,14.43
2022-08-27T10:29:38.463Z,15.52
2022-08-27T10:32:36.735Z,13.80
2022-08-27T10:35:12.235Z,13.63
2022-08-27T10:37:42.103Z,14.07
2022-08-27T10:40:18.139Z,15.43
2022-08-27T10:43:09.638Z,14.10
2022-08-27T10:45:51.192Z,15.95
2022-08-27T10:48:34.388Z,14.43
2022-08-27T10:51:04.426Z,14.40
2022-08-27T10:53:44.069Z,14.30
2022-08-27T10:56:33.244Z,12.65
2022-08-27T10:59:17.556Z,15.13
2022-08-27T11:02:05.666Z,13.02
2022-08-27T11:04:39.143Z,17.17
2022-08-27T11:09:44.904Z,12.07
2022-08-27T11:12:17.439Z,12.02
2022-08-27T11:14:53.072Z,12.30
2022-08-27T11:17:37.718Z,12.00
2022-08-27T11:20:20.807Z,11.63
2022-08-27T11:22:55.354Z,10.13
2022-08-27T11:25:22.172Z,12.82
2022-08-27T11:27:53.543Z,10.45
2022-08-27T11:30:30.211Z,11.57
2022-08-27T11:33:14.192Z,10.40
2022-08-27T11:36:04.486Z,10.93
2022-08-27T11:38:49.939Z,11.77
2022-08-27T11:41:16.714Z,12.15
2022-08-27T11:43:44.957Z,11.55
2022-08-27T11:46:12.341Z,14.75
2022-08-27T11:48:43.139Z,13.35
2022-08-27T11:51:30.771Z,15.10
2022-08-27T11:54:07.654Z,16.88
2022-08-27T11:56:43.058Z,13.38
2022-08-27T11:59:28.548Z,15.23
2022-08-27T12:01:58.123Z,15.10
2022-08-27T12:04:31.175Z,12.88
2022-08-27T12:07:27.606Z,14.85
2022-08-27T12:10:00.351Z,11.68
2022-08-27T12:12:44.895Z,11.63
2022-08-27T12:15:31.155Z,12.38
2022-08-27T12:18:08.571Z,14.75
2022-08-27T12:20:57.002Z,12.25
2022-08-27T12:23:42.266Z,12.13
2022-08-27T12:26:35.325Z,11.60
2022-08-27T12:29:24.267Z,12.63
2022-08-27T12:32:07.191Z,13.52
2022-08-27T12:34:47.559Z,12.95
2022-08-27T12:37:14.373Z,13.50
2022-08-27T12:39:44.438Z,12.52
2022-08-27T12:42:19.091Z,12.65
2022-08-27T12:44:45.964Z,13.63
2022-08-27T12:47:16.121Z,15.32
2022-08-27T12:49:57.549Z,12.27
2022-08-27T12:52:36.176Z,11.70
2022-08-27T12:55:31.423Z,11.23
2022-08-27T12:58:17.658Z,12.00
2022-08-27T13:01:14.959Z,11.25
2022-08-27T13:03:47.336Z,13.00
2022-08-27T13:06:34.384Z,11.57
2022-08-27T13:09:07.269Z,10.68
2022-08-27T13:11:44.455Z,12.73
2022-08-27T13:14:20.418Z,9.82
2022-08-27T13:16:53.910Z,9.50
2022-08-27T13:19:35.730Z,7.93
2022-08-27T13:22:05.905Z,7.40
2022-08-27T13:24:54.568Z,7.65
2022-08-27T13:27:36.399Z,7.38
2022-08-27T13:30:08.451Z,6.95
2022-08-27T13:32:37.170Z,7.60
2022-08-27T13:35:06.543Z,6.75
2022-08-27T13:37:46.417Z,7.18
2022-08-27T13:40:32.024Z,8.68
2022-08-27T13:43:09.029Z,7.82
2022-08-27T13:45:37.987Z,7.80
2022-08-27T13:48:05.795Z,6.80
2022-08-27T13:50:34.763Z,8.98
2022-08-27T13:53:25.238Z,7.57
2022-08-27T13:55:53.692Z,7.95
2022-08-27T13:58:26.274Z,8.05
2022-08-27T14:00:53.782Z,7.88
2022-08-27T14:03:30.497Z,8.82
2022-08-27T14:05:57.539Z,7.78
2022-08-27T14:08:30.859Z,7.32
2022-08-27T14:11:04.837Z,9.43
2022-08-27T14:13:48.512Z,7.35
2022-08-27T14:16:26.433Z,7.82
2022-08-27T14:19:04.897Z,8.70
2022-08-27T14:21:32.382Z,6.65
2022-08-27T14:23:59.325Z,7.57
2022-08-27T14:26:26.680Z,10.18
2022-08-27T14:28:54.719Z,7.25
2022-08-27T14:31:22.486Z,7.28
2022-08-27T14:33:54.368Z,6.32
2022-08-27T14:36:22.755Z,6.05
2022-08-27T14:38:51.482Z,6.63
2022-08-27T14:41:21.581Z,8.35
2022-08-27T14:43:49.345Z,7.20
2022-08-27T14:46:26.208Z,6.80
2022-08-27T14:48:55.698Z,6.45
2022-08-27T14:51:32.190Z,6.63
2022-08-27T14:53:58.991Z,5.47
2022-08-27T14:56:26.070Z,6.25
2022-08-27T14:58:53.671Z,5.70
2022-08-27T15:01:23.850Z,6.53
2022-08-27T15:03:51.744Z,5.30
2022-08-27T15:06:19.825Z,6.30
2022-08-27T15:08:50.326Z,5.10
2022-08-27T15:11:29.249Z,5.07
2022-08-27T15:13:56.916Z,5.00
2022-08-27T15:16:32.480Z,3.85
2022-08-27T15:19:01.685Z,5.65
2022-08-27T15:21:31.021Z,5.65
2022-08-27T15:24:04.413Z,4.07
2022-08-27T15:26:32.020Z,4.45
2022-08-27T15:29:02.832Z,5.18
2022-08-27T15:31:32.656Z,5.63
2022-08-27T15:33:59.421Z,4.50
2022-08-27T15:36:26.264Z,5.43
2022-08-27T15:38:54.537Z,5.57
2022-08-27T15:41:24.255Z,5.20
2022-08-27T15:43:53.016Z,4.63
2022-08-27T15:46:20.107Z,4.57
2022-08-27T15:48:47.026Z,4.05
2022-08-27T15:51:14.867Z,4.47
2022-08-27T15:53:43.260Z,4.20
2022-08-27T15:56:10.082Z,5.15
2022-08-27T15:58:38.068Z,4.90
2022-08-27T16:01:17.407Z,3.90
2022-08-27T16:03:46.113Z,2.97
2022-08-27T16:06:18.830Z,3.72
2022-08-27T16:11:14.047Z,5.95
2022-08-27T16:13:41.420Z,3.40
2022-08-27T16:16:10.309Z,3.50
2022-08-27T16:18:40.074Z,3.03
2022-08-27T16:21:06.994Z,3.60
2022-08-27T16:23:34.474Z,2.80
2022-08-27T16:26:01.772Z,3.20
2022-08-27T16:28:28.630Z,2.22
2022-08-27T16:30:56.820Z,4.15
2022-08-27T16:33:24.485Z,3.47
2022-08-27T16:35:51.723Z,4.38
2022-08-27T16:38:18.758Z,2.38
2022-08-27T16:40:51.893Z,2.20
2022-08-27T16:43:24.528Z,3.10
2022-08-27T16:45:53.691Z,3.67
2022-08-27T16:48:39.770Z,3.53
2022-08-27T16:51:11.450Z,3.50
2022-08-27T16:53:41.391Z,2.42
2022-08-27T16:56:09.377Z,2.78
2022-08-27T16:58:37.499Z,3.28
2022-08-27T17:01:08.673Z,3.20
2022-08-27T17:04:07.457Z,2.85
2022-08-27T17:06:32.828Z,2.40
2022-08-27T17:08:59.639Z,4.53
2022-08-27T17:11:28.828Z,4.65
2022-08-27T17:13:58.708Z,3.60
2022-08-27T17:16:29.503Z,3.03
2022-08-27T17:18:58.394Z,3.00
2022-08-27T17:21:29.781Z,1.95
2022-08-27T17:24:01.588Z,4.63
2022-08-27T17:26:30.223Z,2.72
2022-08-27T17:28:57.750Z,5.53
2022-08-27T17:31:32.796Z,2.65
2022-08-27T17:34:00.593Z,3.03
2022-08-27T17:36:30.256Z,3.97
2022-08-27T17:38:58.053Z,4.55
2022-08-27T17:41:39.317Z,3.60
2022-08-27T17:44:11.025Z,4.25
2022-08-27T17:46:37.838Z,3.60
2022-08-27T17:49:04.804Z,4.00
2022-08-27T17:51:31.691Z,4.50
2022-08-27T17:54:01.095Z,3.70
2022-08-27T17:56:29.276Z,4.43
2022-08-27T17:58:56.535Z,4.57
2022-08-27T18:01:30.514Z,4.85
2022-08-27T18:03:58.230Z,4.95
2022-08-27T18:06:28.183Z,4.50
2022-08-27T18:08:55.203Z,3.58
2022-08-27T18:11:22.943Z,4.97
2022-08-27T18:13:55.641Z,6.00
2022-08-27T18:16:22.679Z,3.65
2022-08-27T18:18:49.539Z,4.50
2022-08-27T18:21:25.045Z,5.60
2022-08-27T18:23:53.030Z,5.47
2022-08-27T18:26:22.197Z,4.68
2022-08-27T18:28:49.400Z,6.65
2022-08-27T18:31:18.381Z,3.80
2022-08-27T18:33:45.616Z,5.72
2022-08-27T18:36:13.484Z,5.47
2022-08-27T18:38:40.410Z,5.03
2022-08-27T18:41:08.358Z,5.10
2022-08-27T18:43:35.663Z,3.95
2022-08-27T18:46:04.474Z,4.78
2022-08-27T18:48:32.150Z,7.32
2022-08-27T18:51:01.646Z,5.70
2022-08-27T18:53:32.434Z,4.65
2022-08-27T18:56:00.092Z,7.30
2022-08-27T18:58:27.975Z,5.25
2022-08-27T19:00:58.589Z,6.57
2022-08-27T19:03:34.688Z,6.25
2022-08-27T19:06:02.254Z,5.75
2022-08-27T19:08:36.182Z,7.13
2022-08-27T19:11:03.335Z,7.00
2022-08-27T19:13:30.076Z,7.57
2022-08-27T19:16:00.657Z,8.18
2022-08-27T19:18:30.094Z,6.07
2022-08-27T19:20:57.552Z,6.82
2022-08-27T19:23:25.021Z,6.25
2022-08-27T19:25:52.647Z,6.95
2022-08-27T19:28:24.506Z,6.35
2022-08-27T19:30:51.448Z,6.03
2022-08-27T19:33:18.398Z,5.47
2022-08-27T19:35:45.216Z,10.77
2022-08-27T19:38:13.478Z,8.43
2022-08-27T19:40:41.157Z,5.30
2022-08-27T19:43:08.780Z,6.43
2022-08-27T19:45:36.493Z,5.70
2022-08-27T19:48:08.128Z,8.60
2022-08-27T19:50:35.159Z,6.95
2022-08-27T19:53:01.935Z,7.40
2022-08-27T19:55:28.912Z,8.80
2022-08-27T19:57:55.719Z,7.00
2022-08-27T20:00:27.829Z,7.53
2022-08-27T20:02:55.596Z,10.35
2022-08-27T20:05:23.095Z,8.65
2022-08-27T20:07:52.415Z,8.52
2022-08-27T20:10:22.778Z,6.35
2022-08-27T20:15:21.016Z,8.27
2022-08-27T20:17:51.933Z,7.47
2022-08-27T20:20:23.028Z,8.40
2022-08-27T20:22:50.086Z,8.32
2022-08-27T20:25:17.325Z,7.45
2022-08-27T20:27:44.177Z,7.68
2022-08-27T20:30:13.470Z,7.95
2022-08-27T20:32:40.661Z,9.48
2022-08-27T20:35:09.624Z,7.35
2022-08-27T20:37:42.011Z,7.43
2022-08-27T20:40:12.729Z,6.35
2022-08-27T20:42:39.576Z,10.15
2022-08-27T20:45:11.787Z,10.30
2022-08-27T20:47:40.049Z,9.05
2022-08-27T20:50:07.438Z,7.25
2022-08-27T20:52:35.582Z,12.35
2022-08-27T20:55:03.595Z,8.98
2022-08-27T20:57:30.421Z,9.20
2022-08-27T21:00:15.770Z,7.30
2022-08-27T21:02:42.590Z,10.05
2022-08-27T21:05:15.577Z,7.63
2022-08-27T21:07:42.495Z,8.95
2022-08-27T21:10:09.608Z,9.38
2022-08-27T21:12:36.374Z,10.18
2022-08-27T21:15:05.711Z,8.63
2022-08-27T21:17:32.502Z,8.60
2022-08-27T21:19:59.267Z,9.50
2022-08-27T21:22:26.213Z,8.02
2022-08-27T21:24:53.154Z,8.18
2022-08-27T21:27:21.260Z,8.90
2022-08-27T21:29:48.922Z,9.93
2022-08-27T21:32:16.191Z,9.45
2022-08-27T21:34:43.167Z,9.32
2022-08-27T21:37:11.824Z,11.20
2022-08-27T21:39:39.910Z,11.38
2022-08-27T21:42:07.693Z,10.02
2022-08-27T21:44:34.886Z,11.95
2022-08-27T21:47:03.680Z,10.18
2022-08-27T21:49:34.322Z,11.73
2022-08-27T21:52:06.129Z,9.55
2022-08-27T21:54:35.494Z,8.52
2022-08-27T21:57:04.406Z,8.43
2022-08-27T21:59:33.073Z,11.77
2022-08-27T22:02:01.190Z,11.23
2022-08-27T22:04:30.580Z,8.35
2022-08-27T22:06:58.858Z,10.82
2022-08-27T22:09:26.509Z,11.10
2022-08-27T22:11:53.356Z,9.85
2022-08-27T22:14:20.217Z,12.85
2022-08-27T22:16:47.410Z,12.23
2022-08-27T22:19:14.196Z,11.88
2022-08-27T22:21:40.980Z,10.93
2022-08-27T22:24:08.318Z,11.15
2022-08-27T22:26:35.089Z,14.35
2022-08-27T22:29:03.744Z,9.05
2022-08-27T22:31:32.542Z,12.55
2022-08-27T22:34:00.772Z,12.30
2022-08-27T22:36:27.767Z,12.40
2022-08-27T22:38:54.867Z,14.50
2022-08-27T22:41:30.640Z,15.90
2022-08-27T22:43:59.821Z,11.60
2022-08-27T22:46:26.798Z,14.73
2022-08-27T22:48:53.612Z,13.70
2022-08-27T22:51:20.547Z,12.32
2022-08-27T22:53:47.342Z,12.45
2022-08-27T22:56:14.210Z,15.77
2022-08-27T22:58:41.164Z,11.73
2022-08-27T23:01:13.543Z,13.73
2022-08-27T23:03:40.375Z,12.35
2022-08-27T23:06:07.220Z,14.50
2022-08-27T23:08:34.034Z,12.85
2022-08-27T23:11:03.360Z,14.90
2022-08-27T23:13:31.922Z,14.68
2022-08-27T23:16:00.215Z,10.95
2022-08-27T23:18:27.373Z,12.88
2022-08-27T23:20:54.248Z,12.63
2022-08-27T23:23:21.078Z,12.00
2022-08-27T23:26:06.579Z,16.48
2022-08-27T23:28:33.568Z,21.88
2022-08-27T23:31:00.438Z,15.57
2022-08-27T23:33:27.214Z,14.68
2022-08-27T23:35:53.954Z,16.90
2022-08-27T23:38:21.731Z,14.70
2022-08-27T23:40:49.471Z,14.23
2022-08-27T23:43:17.325Z,16.40
2022-08-27T23:45:44.367Z,17.75
2022-08-27T23:48:11.755Z,14.75
2022-08-27T23:50:38.885Z,15.98
2022-08-27T23:53:07.487Z,22.70
2022-08-27T23:55:34.691Z,15.98
2022-08-27T23:58:02.551Z,14.15
